createdAt,value
2022-11-18T00:02:15.423Z,78.85
2022-11-18T00:04:43.204Z,79.21
2022-11-18T00:07:11.480Z,78.38
2022-11-18T00:09:39.286Z,78.87
2022-11-18T00:12:24.408Z,78.96
2022-11-18T00:14:52.056Z,79.10
2022-11-18T00:17:19.726Z,78.79
2022-11-18T00:19:47.680Z,79.02
2022-11-18T00:22:15.329Z,79.06
2022-11-18T00:24:43.352Z,78.81
2022-11-18T00:27:11.049Z,79.42
2022-11-18T00:29:38.669Z,78.81
2022-11-18T00:32:07.579Z,78.90
2022-11-18T00:34:35.302Z,79.20
2022-11-18T00:37:03.338Z,79.02
2022-11-18T00:39:30.957Z,78.84
2022-11-18T00:42:15.930Z,79.33
2022-11-18T00:44:44.473Z,78.95
2022-11-18T00:47:12.857Z,79.34
2022-11-18T00:49:40.522Z,79.15
2022-11-18T00:52:08.236Z,79.41
2022-11-18T00:54:35.913Z,79.33
2022-11-18T00:57:05.541Z,79.54
2022-11-18T00:59:33.906Z,79.28
2022-11-18T01:02:01.534Z,79.29
2022-11-18T01:04:29.200Z,79.29
2022-11-18T01:06:56.854Z,79.24
2022-11-18T01:09:24.961Z,79.26
2022-11-18T01:12:10.285Z,79.31
2022-11-18T01:14:37.888Z,79.44
2022-11-18T01:17:05.526Z,79.20
2022-11-18T01:19:35.570Z,79.78
2022-11-18T01:22:03.468Z,79.33
2022-11-18T01:24:31.540Z,79.33
2022-11-18T01:26:59.202Z,79.10
2022-11-18T01:29:27.327Z,79.08
2022-11-18T01:32:22.817Z,79.48
2022-11-18T01:34:42.991Z,79.74
2022-11-18T01:37:10.575Z,79.34
2022-11-18T01:39:38.195Z,79.11
2022-11-18T01:42:07.864Z,79.52
2022-11-18T01:44:35.480Z,79.82
2022-11-18T01:47:03.122Z,79.61
2022-11-18T01:49:31.176Z,79.43
2022-11-18T01:51:58.861Z,79.43
2022-11-18T01:54:26.512Z,79.54
2022-11-18T01:56:54.179Z,79.46
2022-11-18T01:59:22.168Z,79.58
2022-11-18T02:01:51.430Z,79.66
2022-11-18T02:04:20.717Z,79.27
2022-11-18T02:06:48.347Z,79.71
2022-11-18T02:09:16.219Z,79.69
2022-11-18T02:11:54.870Z,79.96
2022-11-18T02:14:22.830Z,79.52
2022-11-18T02:16:52.148Z,79.88
2022-11-18T02:19:19.853Z,79.72
2022-11-18T02:21:47.490Z,79.61
2022-11-18T02:24:15.450Z,79.60
2022-11-18T02:26:43.113Z,79.51
2022-11-18T02:29:10.705Z,79.68
2022-11-18T02:31:38.272Z,79.53
2022-11-18T02:34:06.418Z,79.16
2022-11-18T02:36:34.415Z,79.53
2022-11-18T02:39:01.994Z,78.94
2022-11-18T02:41:31.629Z,78.78
2022-11-18T02:43:59.936Z,78.21
2022-11-18T02:46:27.597Z,78.44
2022-11-18T02:48:55.674Z,77.93
2022-11-18T02:51:23.319Z,77.80
2022-11-18T02:53:50.966Z,77.71
2022-11-18T02:56:18.661Z,77.80
2022-11-18T02:58:46.243Z,77.54
2022-11-18T03:01:13.929Z,77.36
2022-11-18T03:03:41.559Z,77.75
2022-11-18T03:06:10.496Z,77.30
2022-11-18T03:08:38.249Z,77.12
2022-11-18T03:11:05.944Z,77.46
2022-11-18T03:13:33.890Z,77.47
2022-11-18T03:16:01.445Z,77.55
2022-11-18T03:18:32.748Z,77.72
2022-11-18T03:21:00.327Z,77.86
2022-11-18T03:23:28.117Z,78.03
2022-11-18T03:25:55.943Z,78.07
2022-11-18T03:28:23.499Z,78.21
2022-11-18T03:30:52.614Z,77.87
2022-11-18T03:33:20.240Z,78.40
2022-11-18T03:35:47.824Z,78.16
2022-11-18T03:38:15.436Z,77.75
2022-11-18T03:40:43.504Z,78.32
2022-11-18T03:43:11.138Z,78.39
2022-11-18T03:45:38.726Z,78.32
2022-11-18T03:48:06.360Z,78.31
2022-11-18T03:50:34.294Z,78.28
2022-11-18T03:53:01.889Z,78.15
2022-11-18T03:55:31.057Z,78.33
2022-11-18T03:57:58.656Z,78.38
2022-11-18T04:00:26.232Z,78.34
2022-11-18T04:02:54.653Z,78.14
2022-11-18T04:05:22.198Z,78.19
2022-11-18T04:07:52.348Z,78.19
2022-11-18T04:10:19.953Z,78.27
2022-11-18T04:12:47.526Z,78.57
2022-11-18T04:15:15.095Z,78.62
2022-11-18T04:17:42.699Z,78.59
2022-11-18T04:20:10.275Z,78.75
2022-11-18T04:22:37.836Z,78.23
2022-11-18T04:25:05.451Z,78.15
2022-11-18T04:27:33.386Z,78.17
2022-11-18T04:30:00.966Z,78.28
2022-11-18T04:32:28.540Z,78.22
2022-11-18T04:34:56.138Z,78.59
2022-11-18T04:37:23.748Z,78.26
2022-11-18T04:39:51.705Z,78.22
2022-11-18T04:42:19.286Z,78.57
2022-11-18T04:44:50.182Z,78.37
2022-11-18T04:47:17.828Z,78.19
2022-11-18T04:49:45.437Z,78.44
2022-11-18T04:52:13.376Z,78.26
2022-11-18T04:54:41.011Z,78.06
2022-11-18T04:57:08.690Z,78.44
2022-11-18T04:59:36.234Z,78.34
2022-11-18T05:02:03.968Z,78.70
2022-11-18T05:04:31.854Z,78.57
2022-11-18T05:06:59.934Z,78.13
2022-11-18T05:09:35.779Z,78.33
2022-11-18T05:12:20.706Z,78.50
2022-11-18T05:14:50.826Z,78.18
2022-11-18T05:17:18.644Z,78.17
2022-11-18T05:19:46.243Z,78.65
2022-11-18T05:22:13.838Z,78.70
2022-11-18T05:24:41.462Z,77.77
2022-11-18T05:27:09.101Z,78.52
2022-11-18T05:29:36.733Z,78.00
2022-11-18T05:32:05.609Z,78.23
2022-11-18T05:34:33.279Z,78.41
2022-11-18T05:37:00.922Z,78.30
2022-11-18T05:39:28.970Z,78.32
2022-11-18T05:42:13.914Z,78.51
2022-11-18T05:44:43.545Z,79.02
2022-11-18T05:47:11.620Z,78.60
2022-11-18T05:49:39.913Z,78.93
2022-11-18T05:52:07.996Z,79.23
2022-11-18T05:54:35.699Z,79.72
2022-11-18T05:57:05.088Z,79.33
2022-11-18T05:59:33.196Z,79.25
2022-11-18T06:02:04.260Z,79.74
2022-11-18T06:04:31.998Z,79.98
2022-11-18T06:06:59.700Z,79.48
2022-11-18T06:09:35.612Z,80.07
2022-11-18T06:12:03.253Z,80.10
2022-11-18T06:14:31.286Z,80.68
2022-11-18T06:16:59.015Z,80.33
2022-11-18T06:19:33.247Z,80.47
2022-11-18T06:22:01.033Z,80.22
2022-11-18T06:24:28.723Z,80.52
2022-11-18T06:26:57.302Z,80.72
2022-11-18T06:29:27.989Z,80.06
2022-11-18T06:31:58.960Z,80.06
2022-11-18T06:34:28.668Z,80.13
2022-11-18T06:37:00.769Z,80.00
2022-11-18T06:39:29.663Z,79.62
2022-11-18T06:41:57.750Z,79.50
2022-11-18T06:44:24.432Z,79.58
2022-11-18T06:46:58.805Z,79.63
2022-11-18T06:52:21.515Z,79.79
2022-11-18T06:54:51.883Z,79.68
2022-11-18T06:57:27.158Z,79.59
2022-11-18T07:00:00.649Z,79.30
2022-11-18T07:02:30.209Z,79.42
2022-11-18T07:04:58.907Z,79.48
2022-11-18T07:07:29.033Z,79.30
2022-11-18T07:09:58.043Z,79.42
2022-11-18T07:12:26.966Z,79.22
2022-11-18T07:14:57.155Z,79.92
2022-11-18T07:17:24.877Z,79.61
2022-11-18T07:19:53.459Z,79.62
2022-11-18T07:22:21.764Z,79.79
2022-11-18T07:24:49.699Z,79.37
2022-11-18T07:27:19.043Z,79.74
2022-11-18T07:29:46.739Z,79.76
2022-11-18T07:32:15.920Z,79.37
2022-11-18T07:34:45.422Z,79.14
2022-11-18T07:37:13.156Z,79.52
2022-11-18T07:39:40.972Z,79.12
2022-11-18T07:42:08.927Z,79.52
2022-11-18T07:44:38.534Z,79.96
2022-11-18T07:47:06.676Z,79.47
2022-11-18T07:49:34.836Z,79.95
2022-11-18T07:52:02.676Z,79.64
2022-11-18T07:54:30.535Z,79.61
2022-11-18T07:56:58.985Z,79.58
2022-11-18T07:59:26.737Z,79.61
2022-11-18T08:01:54.708Z,79.52
2022-11-18T08:04:24.897Z,79.19
2022-11-18T08:06:52.730Z,79.31
2022-11-18T08:09:21.478Z,79.37
2022-11-18T08:11:49.352Z,79.22
2022-11-18T08:14:17.176Z,79.03
2022-11-18T08:16:45.283Z,79.34
2022-11-18T08:19:13.257Z,78.73
2022-11-18T08:21:41.685Z,79.24
2022-11-18T08:24:09.417Z,78.75
2022-11-18T08:26:37.334Z,78.22
2022-11-18T08:29:06.814Z,78.50
2022-11-18T08:31:34.634Z,78.13
2022-11-18T08:34:03.386Z,78.29
2022-11-18T08:36:31.179Z,78.67
2022-11-18T08:38:59.458Z,78.09
2022-11-18T08:41:27.453Z,78.24
2022-11-18T08:43:55.511Z,78.84
2022-11-18T08:46:23.952Z,77.90
2022-11-18T08:48:51.754Z,77.80
2022-11-18T08:51:19.716Z,78.25
2022-11-18T08:53:47.649Z,77.99
2022-11-18T08:56:15.660Z,77.53
2022-11-18T08:58:43.661Z,78.06
2022-11-18T09:01:11.735Z,77.68
2022-11-18T09:03:39.786Z,77.72
2022-11-18T09:06:09.553Z,77.62
2022-11-18T09:08:37.406Z,77.76
2022-11-18T09:11:05.769Z,77.61
2022-11-18T09:13:56.313Z,77.62
2022-11-18T09:19:45.546Z,77.77
2022-11-18T09:21:59.638Z,77.97
2022-11-18T09:24:27.676Z,77.22
2022-11-18T09:26:56.020Z,77.79
2022-11-18T09:29:26.598Z,77.86
2022-11-18T09:31:54.488Z,77.42
2022-11-18T09:34:22.533Z,77.33
2022-11-18T09:36:50.445Z,77.27
2022-11-18T09:39:19.102Z,77.63
2022-11-18T09:41:47.411Z,77.60
2022-11-18T09:44:15.764Z,77.66
2022-11-18T09:46:44.188Z,77.08
2022-11-18T09:49:15.113Z,77.21
2022-11-18T09:51:45.645Z,76.80
2022-11-18T09:54:13.890Z,76.93
2022-11-18T09:56:42.007Z,77.22
2022-11-18T09:59:10.187Z,76.47
2022-11-18T10:01:38.397Z,76.75
2022-11-18T10:04:07.540Z,76.57
2022-11-18T10:06:35.822Z,76.88
2022-11-18T10:09:03.582Z,76.38
2022-11-18T10:11:31.540Z,76.97
2022-11-18T10:13:59.581Z,76.32
2022-11-18T10:16:27.538Z,76.50
2022-11-18T10:19:02.577Z,76.61
2022-11-18T10:21:30.624Z,76.70
2022-11-18T10:23:58.959Z,76.28
2022-11-18T10:26:26.748Z,76.67
2022-11-18T10:28:59.422Z,76.66
2022-11-18T10:31:27.402Z,76.27
2022-11-18T10:33:55.200Z,76.89
2022-11-18T10:36:23.507Z,76.44
2022-11-18T10:38:51.351Z,76.46
2022-11-18T10:41:19.256Z,76.99
2022-11-18T10:43:47.936Z,76.62
2022-11-18T10:46:15.882Z,77.21
2022-11-18T10:48:43.765Z,76.68
2022-11-18T10:51:11.642Z,77.03
2022-11-18T10:53:39.633Z,77.05
2022-11-18T10:56:07.527Z,76.90
2022-11-18T10:58:35.696Z,76.54
2022-11-18T11:01:04.004Z,76.93
2022-11-18T11:03:31.852Z,76.35
2022-11-18T11:06:00.711Z,76.30
2022-11-18T11:08:37.433Z,76.90
2022-11-18T11:11:06.561Z,76.51
2022-11-18T11:13:34.588Z,76.28
2022-11-18T11:16:04.969Z,76.45
2022-11-18T11:18:45.196Z,75.89
2022-11-18T11:21:13.346Z,76.36
2022-11-18T11:23:41.227Z,76.06
2022-11-18T11:28:58.623Z,76.06
2022-11-18T11:31:27.091Z,75.89
2022-11-18T11:33:54.842Z,76.47
2022-11-18T11:36:22.818Z,76.63
2022-11-18T11:38:50.886Z,76.27
2022-11-18T11:41:18.620Z,76.33
2022-11-18T11:43:47.031Z,76.39
2022-11-18T11:46:14.927Z,76.22
2022-11-18T11:48:42.653Z,76.41
2022-11-18T11:51:10.300Z,75.78
2022-11-18T11:53:38.335Z,75.28
2022-11-18T11:56:06.577Z,75.41
2022-11-18T11:58:34.463Z,75.32
2022-11-18T12:01:02.451Z,75.40
2022-11-18T12:03:30.377Z,75.25
2022-11-18T12:05:58.225Z,74.83
2022-11-18T12:08:26.701Z,74.90
2022-11-18T12:10:54.626Z,74.73
2022-11-18T12:13:23.076Z,75.17
2022-11-18T12:15:51.414Z,75.45
2022-11-18T12:18:19.230Z,75.29
2022-11-18T12:20:48.087Z,75.24
2022-11-18T12:23:16.250Z,75.42
2022-11-18T12:25:43.999Z,75.84
2022-11-18T12:28:11.803Z,75.45
2022-11-18T12:30:39.724Z,74.90
2022-11-18T12:33:07.924Z,74.37
2022-11-18T12:35:35.809Z,74.01
2022-11-18T12:38:04.244Z,74.14
2022-11-18T12:40:32.089Z,74.22
2022-11-18T12:43:17.819Z,73.87
2022-11-18T12:45:46.019Z,73.36
2022-11-18T12:48:16.575Z,73.38
2022-11-18T12:50:44.588Z,73.41
2022-11-18T12:53:12.519Z,74.12
2022-11-18T12:55:40.773Z,74.32
2022-11-18T12:58:09.172Z,74.24
2022-11-18T13:00:58.502Z,74.64
2022-11-18T13:03:26.647Z,75.34
2022-11-18T13:05:54.829Z,75.11
2022-11-18T13:08:22.691Z,75.20
2022-11-18T13:10:54.934Z,75.20
2022-11-18T13:13:25.949Z,75.43
2022-11-18T13:16:11.952Z,75.42
2022-11-18T13:18:40.299Z,75.14
2022-11-18T13:21:22.192Z,74.60
2022-11-18T13:23:59.332Z,73.30
2022-11-18T13:26:28.818Z,73.31
2022-11-18T13:28:56.625Z,73.33
2022-11-18T13:31:24.528Z,73.15
2022-11-18T13:33:52.707Z,73.60
2022-11-18T13:36:20.476Z,72.62
2022-11-18T13:38:49.606Z,73.14
2022-11-18T13:41:22.977Z,73.37
2022-11-18T13:43:53.970Z,73.46
2022-11-18T13:46:24.860Z,73.60
2022-11-18T13:48:53.285Z,74.17
2022-11-18T13:51:21.076Z,74.35
2022-11-18T13:53:49.040Z,74.74
2022-11-18T13:56:16.861Z,74.51
2022-11-18T13:59:15.616Z,74.92
2022-11-18T14:01:32.906Z,74.93
2022-11-18T14:04:00.695Z,74.67
2022-11-18T14:06:28.607Z,74.85
2022-11-18T14:08:56.685Z,75.19
2022-11-18T14:11:24.494Z,74.74
2022-11-18T14:13:52.746Z,74.61
2022-11-18T14:16:20.912Z,74.34
2022-11-18T14:18:49.224Z,73.11
2022-11-18T14:21:17.106Z,71.79
2022-11-18T14:23:45.039Z,71.67
2022-11-18T14:26:13.263Z,71.43
2022-11-18T14:28:41.073Z,71.65
2022-11-18T14:31:09.069Z,71.46
2022-11-18T14:33:37.019Z,71.71
2022-11-18T14:36:04.958Z,72.81
2022-11-18T14:41:44.721Z,73.37
2022-11-18T14:44:14.278Z,74.44
2022-11-18T14:46:42.116Z,74.81
2022-11-18T14:49:10.436Z,74.49
2022-11-18T14:51:38.538Z,74.77
2022-11-18T14:54:06.371Z,75.03
2022-11-18T14:56:34.363Z,75.38
2022-11-18T14:59:02.674Z,76.04
2022-11-18T15:01:31.396Z,75.51
2022-11-18T15:03:59.347Z,76.31
2022-11-18T15:06:28.825Z,76.22
2022-11-18T15:08:58.778Z,76.45
2022-11-18T15:11:26.565Z,76.76
2022-11-18T15:13:55.179Z,76.89
2022-11-18T15:16:22.962Z,77.21
2022-11-18T15:18:50.865Z,76.98
2022-11-18T15:21:19.100Z,77.02
2022-11-18T15:23:47.112Z,76.94
2022-11-18T15:26:15.432Z,77.10
2022-11-18T15:28:43.361Z,77.59
2022-11-18T15:31:11.084Z,77.16
2022-11-18T15:33:38.896Z,76.93
2022-11-18T15:36:06.929Z,77.59
2022-11-18T15:38:37.055Z,77.28
2022-11-18T15:41:05.314Z,77.35
2022-11-18T15:43:33.252Z,77.30
2022-11-18T15:46:01.051Z,77.43
2022-11-18T15:48:28.942Z,77.69
2022-11-18T15:50:57.241Z,78.00
2022-11-18T15:53:25.085Z,77.12
2022-11-18T15:55:52.860Z,77.35
2022-11-18T15:58:20.818Z,77.12
2022-11-18T16:00:48.782Z,77.54
2022-11-18T16:03:17.141Z,77.33
2022-11-18T16:05:45.230Z,77.23
2022-11-18T16:08:13.110Z,77.76
2022-11-18T16:10:58.364Z,77.55
2022-11-18T16:13:29.235Z,77.88
2022-11-18T16:15:57.121Z,77.78
2022-11-18T16:18:25.182Z,78.08
2022-11-18T16:20:53.033Z,78.30
2022-11-18T16:23:20.820Z,78.62
2022-11-18T16:25:49.247Z,78.17
2022-11-18T16:28:17.071Z,78.11
2022-11-18T16:31:02.458Z,78.34
2022-11-18T16:33:30.321Z,78.41
2022-11-18T16:35:59.651Z,77.98
2022-11-18T16:38:27.597Z,78.31
2022-11-18T16:40:55.547Z,77.91
2022-11-18T16:43:23.823Z,77.56
2022-11-18T16:45:51.928Z,78.19
2022-11-18T16:48:20.209Z,78.13
2022-11-18T16:50:48.038Z,77.90
2022-11-18T16:53:16.042Z,78.27
2022-11-18T16:55:43.882Z,78.42
2022-11-18T16:58:12.307Z,78.31
2022-11-18T17:01:15.965Z,78.36
2022-11-18T17:03:30.417Z,78.62
2022-11-18T17:05:58.279Z,78.47
2022-11-18T17:08:26.175Z,78.61
2022-11-18T17:10:54.736Z,78.94
2022-11-18T17:13:22.848Z,78.53
2022-11-18T17:15:50.716Z,79.00
2022-11-18T17:18:18.524Z,78.47
2022-11-18T17:20:46.493Z,79.15
2022-11-18T17:23:16.406Z,78.94
2022-11-18T17:25:44.820Z,79.73
2022-11-18T17:28:12.723Z,79.86
2022-11-18T17:30:41.878Z,79.42
2022-11-18T17:33:11.486Z,79.32
2022-11-18T17:35:39.981Z,79.51
2022-11-18T17:38:07.896Z,79.05
2022-11-18T17:40:35.796Z,79.36
2022-11-18T17:43:04.210Z,79.23
2022-11-18T17:45:32.003Z,79.83
2022-11-18T17:48:02.379Z,80.18
2022-11-18T17:50:30.230Z,79.78
2022-11-18T17:52:58.128Z,80.11
2022-11-18T17:55:26.041Z,80.56
2022-11-18T17:57:53.966Z,80.45
2022-11-18T18:00:24.438Z,80.93
2022-11-18T18:02:52.315Z,80.79
2022-11-18T18:05:20.453Z,80.62
2022-11-18T18:07:48.677Z,80.79
2022-11-18T18:10:17.062Z,81.06
2022-11-18T18:13:02.545Z,81.46
2022-11-18T18:15:33.379Z,81.16
2022-11-18T18:18:01.189Z,81.08
2022-11-18T18:20:29.906Z,81.30
2022-11-18T18:22:57.870Z,81.17
2022-11-18T18:25:25.820Z,81.45
2022-11-18T18:27:54.234Z,80.97
2022-11-18T18:30:22.772Z,81.50
2022-11-18T18:32:52.539Z,81.40
2022-11-18T18:35:20.875Z,81.49
2022-11-18T18:37:49.132Z,81.50
2022-11-18T18:40:18.954Z,81.39
2022-11-18T18:42:47.041Z,81.13
2022-11-18T18:45:32.167Z,81.68
2022-11-18T18:48:00.771Z,81.47
2022-11-18T18:50:29.944Z,81.76
2022-11-18T18:52:57.869Z,81.47
2022-11-18T18:55:25.926Z,81.55
2022-11-18T18:57:53.926Z,81.55
2022-11-18T19:00:22.178Z,81.91
2022-11-18T19:02:50.252Z,81.69
2022-11-18T19:05:18.127Z,81.73
2022-11-18T19:07:46.023Z,81.51
2022-11-18T19:10:14.174Z,81.91
2022-11-18T19:12:44.502Z,82.16
2022-11-18T19:15:16.612Z,82.10
2022-11-18T19:17:44.736Z,81.86
2022-11-18T19:20:29.954Z,82.14
2022-11-18T19:22:58.603Z,82.11
2022-11-18T19:25:28.456Z,82.31
2022-11-18T19:27:56.427Z,82.32
2022-11-18T19:30:24.285Z,82.33
2022-11-18T19:32:52.614Z,82.08
2022-11-18T19:35:21.094Z,81.92
2022-11-18T19:37:51.693Z,82.17
2022-11-18T19:40:19.558Z,82.16
2022-11-18T19:42:48.132Z,82.13
2022-11-18T19:45:16.025Z,81.94
2022-11-18T19:47:44.448Z,82.18
2022-11-18T19:50:14.021Z,82.25
2022-11-18T19:52:41.859Z,81.84
2022-11-18T19:55:10.171Z,82.20
2022-11-18T19:57:38.377Z,82.45
2022-11-18T20:00:06.794Z,82.13
2022-11-18T20:02:36.677Z,81.99
2022-11-18T20:05:27.391Z,81.99
2022-11-18T20:07:55.594Z,82.07
2022-11-18T20:10:23.714Z,82.10
2022-11-18T20:12:52.996Z,81.77
2022-11-18T20:15:21.226Z,81.56
2022-11-18T20:17:49.219Z,81.78
2022-11-18T20:20:17.230Z,81.86
2022-11-18T20:22:45.834Z,81.76
2022-11-18T20:25:15.912Z,82.34
2022-11-18T20:27:43.873Z,82.14
2022-11-18T20:30:11.830Z,82.09
2022-11-18T20:32:39.773Z,82.17
2022-11-18T20:35:08.311Z,82.23
2022-11-18T20:37:36.654Z,82.43
2022-11-18T20:40:04.442Z,82.09
2022-11-18T20:42:52.657Z,82.31
2022-11-18T20:45:21.340Z,82.12
2022-11-18T20:47:49.275Z,81.97
2022-11-18T20:50:17.194Z,81.93
2022-11-18T20:52:45.066Z,81.78
2022-11-18T20:55:12.781Z,81.59
2022-11-18T20:57:41.383Z,82.00
2022-11-18T21:00:09.367Z,81.98
2022-11-18T21:02:37.282Z,81.83
2022-11-18T21:05:05.265Z,81.79
2022-11-18T21:07:33.191Z,81.95
2022-11-18T21:10:02.448Z,81.90
2022-11-18T21:12:31.998Z,82.13
2022-11-18T21:14:58.730Z,82.02
2022-11-18T21:17:26.497Z,81.97
2022-11-18T21:19:54.557Z,81.75
2022-11-18T21:22:21.837Z,82.05
2022-11-18T21:24:49.719Z,81.66
2022-11-18T21:27:17.639Z,81.80
2022-11-18T21:29:46.954Z,82.17
2022-11-18T21:32:14.871Z,81.86
2022-11-18T21:34:43.248Z,81.61
2022-11-18T21:37:11.249Z,81.89
2022-11-18T21:39:39.216Z,82.31
2022-11-18T21:42:07.502Z,82.04
2022-11-18T21:44:35.327Z,82.24
2022-11-18T21:47:03.227Z,81.32
2022-11-18T21:49:32.093Z,82.13
2022-11-18T21:52:00.023Z,81.83
2022-11-18T21:54:27.899Z,81.76
2022-11-18T21:56:55.920Z,81.80
2022-11-18T21:59:24.487Z,81.75
2022-11-18T22:01:53.800Z,81.95
2022-11-18T22:04:39.247Z,82.15
2022-11-18T22:07:07.110Z,81.71
2022-11-18T22:09:36.960Z,81.88
2022-11-18T22:12:05.174Z,82.22
2022-11-18T22:14:33.054Z,81.80
2022-11-18T22:17:00.910Z,81.76
2022-11-18T22:19:28.889Z,81.75
2022-11-18T22:21:57.148Z,81.64
2022-11-18T22:24:25.025Z,81.45
2022-11-18T22:26:53.376Z,81.61
2022-11-18T22:29:23.654Z,81.26
2022-11-18T22:31:51.772Z,81.13
2022-11-18T22:34:20.130Z,81.52
2022-11-18T22:36:48.000Z,81.76
2022-11-18T22:39:15.748Z,81.84
2022-11-18T22:42:01.012Z,81.27
2022-11-18T22:44:29.420Z,81.60
2022-11-18T22:46:59.502Z,81.65
2022-11-18T22:49:27.493Z,81.65
2022-11-18T22:51:55.306Z,81.35
2022-11-18T22:54:39.809Z,81.49
2022-11-18T22:57:11.018Z,81.60
2022-11-18T22:59:38.832Z,81.38
2022-11-18T23:02:06.803Z,81.89
2022-11-18T23:04:34.730Z,81.31
2022-11-18T23:07:03.049Z,81.50
2022-11-18T23:09:34.683Z,81.56
2022-11-18T23:12:20.064Z,81.72
2022-11-18T23:14:47.814Z,81.62
2022-11-18T23:17:16.182Z,81.59
2022-11-18T23:19:47.629Z,81.89
2022-11-18T23:22:15.656Z,81.56
2022-11-18T23:24:43.440Z,81.70
2022-11-18T23:27:13.734Z,81.89
2022-11-18T23:29:41.445Z,81.79
2022-11-18T23:32:14.828Z,81.79
2022-11-18T23:34:42.508Z,81.47
2022-11-18T23:37:10.182Z,81.59
2022-11-18T23:39:38.007Z,81.61
2022-11-18T23:42:05.874Z,81.75
2022-11-18T23:44:53.062Z,81.70
2022-11-18T23:47:21.219Z,81.79
2022-11-18T23:49:48.906Z,81.89
2022-11-18T23:52:17.217Z,81.72
2022-11-18T23:54:44.978Z,81.71
2022-11-18T23:57:15.181Z,81.70
2022-11-18T23:59:42.940Z,81.35
